Marfret Guyane — FNMV — position and weather

sailwx.info

Track history (hours):
 
Tides and Currents Weather Stations Pressure Air Temp Water Temp Dewpoint Dewpoint Depression Visibility Wind Speed Wind Dir Waves Ship Positions

Marfret Guyane

Last reported at 2016-May-04 20:34 UTC. Time now 2016-May-04 21:07 UTC.
Position N 50°05' W 002°17'.

Length 170 m; draft 7.9 m.

Type: Ship (hazmat cat A). MMSI: 226324000.

Date/timePositionNaut miles runAvg speedWind from/ knotsBaromVisibWave heightAir tempDewpointWater temp
2016-May-04 20:34N 50°05' W 002°17'1717.1
2016-May-04 19:34N 50°03' W 001°50'1616.3
2016-May-04 18:33N 49°56' W 001°28'1615.9
2016-May-04 17:33N 49°49' W 001°06'1716.5
2016-May-04 16:34N 49°42' W 000°42'1818.2
2016-May-04 15:33N 49°35' W 000°16'1010.2
2016-May-04 14:33N 49°32' W 000°01'7 7.4
2016-May-04 13:33N 49°28' E 000°08'1 1.1
2016-May-04 12:32N 49°29' E 000°10'0 0.0
2016-May-04 11:32N 49°29' E 000°10'0 0.0
2016-May-04 10:32N 49°29' E 000°10'0 0.0
2016-May-04 09:32N 49°29' E 000°10'0 0.0
2016-May-04 08:32N 49°29' E 000°10'0 0.0
2016-May-04 07:32N 49°29' E 000°10'0 0.0
2016-May-04 06:32N 49°29' E 000°10'0 0.0
2016-May-04 05:32N 49°29' E 000°10'0 0.0
2016-May-04 04:32N 49°29' E 000°10'0 0.0
2016-May-04 03:32N 49°29' E 000°10'0 0.0
2016-May-04 02:32N 49°29' E 000°10'0 0.0
2016-May-04 01:32N 49°29' E 000°10'0 0.0
2016-May-04 00:32N 49°29' E 000°10'0 0.0
2016-May-03 23:32N 49°29' E 000°10'0 0.0
2016-May-03 22:32N 49°29' E 000°10'0 0.0
2016-May-03 21:32N 49°29' E 000°10'0 0.0
2016-May-03 20:32N 49°29' E 000°10'0 0.0
2016-May-03 19:32N 49°29' E 000°10'0 0.0
2016-May-03 18:32N 49°29' E 000°10'0 0.0
2016-May-03 17:32N 49°29' E 000°10'0 0.0
2016-May-03 16:32N 49°29' E 000°10'0 0.0
2016-May-03 15:32N 49°29' E 000°10'0 0.0
2016-May-03 14:32N 49°29' E 000°10'0 0.0
2016-May-03 13:32N 49°29' E 000°10'0 0.0
2016-May-03 12:32N 49°29' E 000°10'0 0.0
2016-May-03 11:32N 49°29' E 000°10'0 0.0
2016-May-03 10:32N 49°29' E 000°10'0 0.0
2016-May-03 09:32N 49°29' E 000°10'0 0.0
2016-May-03 08:32N 49°29' E 000°10'0 0.0
2016-May-03 07:32N 49°29' E 000°10'0 0.0
2016-May-03 06:32N 49°29' E 000°10'0 0.0
2016-May-03 05:32N 49°29' E 000°10'0 0.0
2016-May-03 04:32N 49°29' E 000°10'0 0.0
2016-May-03 03:32N 49°29' E 000°10'0 0.1
2016-May-03 02:33N 49°29' E 000°10'8 8.3
2016-May-03 01:34N 49°30' W 000°03'1 1.2
2016-May-03 00:33N 49°29' W 000°04'0 0.1
2016-May-02 23:33N 49°30' W 000°04'0 0.0
2016-May-02 22:33N 49°30' W 000°04'0 0.0
2016-May-02 21:33N 49°30' W 000°04'0 0.0
2016-May-02 20:33N 49°30' W 000°04'0 0.3
2016-May-02 19:33N 49°29' W 000°04'7 6.7
2016-May-02 18:33N 49°36' W 000°05'1212.2
2016-May-02 17:33N 49°47' E 000°03'1111.4
2016-May-02 16:34N 49°57' E 000°12'1111.3
2016-May-02 15:33N 50°06' E 000°22'3413.7
2016-May-02 13:07N 50°37' E 000°42'2516.0
2016-May-02 11:34N 50°53' E 001°13'1615.9
2016-May-02 10:33N 51°04' E 001°31'1414.3
2016-May-02 09:34N 51°14' E 001°47'1212.3
2016-May-02 08:33N 51°25' E 001°58'1312.9
2016-May-02 07:33N 51°35' E 002°11'1413.3
2016-May-02 06:32N 51°45' E 002°25'1414.2
2016-May-02 05:33N 51°55' E 002°40'1414.0
2016-May-02 04:33N 52°03' E 002°60'1515.0
2016-May-02 03:33N 52°03' E 003°24'1514.8
2016-May-02 02:33N 52°03' E 003°48'1312.5
2016-May-02 01:33N 51°59' E 004°07'1110.6
2016-May-02 00:33N 51°54' E 004°23'2 2.0
2016-May-01 23:32N 51°53' E 004°26'0 0.0
2016-May-01 22:32N 51°53' E 004°26'0 0.0
2016-May-01 21:32N 51°53' E 004°26'0 0.0
2016-May-01 20:32N 51°53' E 004°26'0 0.0
2016-May-01 19:32N 51°53' E 004°26'0 0.0
2016-May-01 18:32N 51°53' E 004°26'0 0.0
2016-May-01 17:32N 51°53' E 004°26'0 0.0
2016-May-01 16:32N 51°53' E 004°26'0 0.0
2016-May-01 15:32N 51°53' E 004°26'0 0.0
2016-May-01 13:32N 51°53' E 004°26'0 0.0
2016-May-01 12:32N 51°53' E 004°26'0 0.0
2016-May-01 11:32N 51°53' E 004°26'0 0.0
2016-May-01 10:32N 51°53' E 004°26'0 0.0
2016-May-01 09:32N 51°53' E 004°26'0 0.0
2016-May-01 08:32N 51°53' E 004°26'0 0.0
2016-May-01 07:32N 51°53' E 004°26'0 0.0
2016-May-01 06:29N 51°53' E 004°26'0 0.0
2016-May-01 05:32N 51°53' E 004°26'0 0.0
2016-May-01 04:29N 51°53' E 004°26'0 0.0
2016-May-01 03:32N 51°53' E 004°26'1 0.7
2016-May-01 02:33N 51°54' E 004°26'8 8.1
2016-May-01 01:34N 51°56' E 004°13'1312.6
2016-May-01 00:34N 52°00' E 003°53'1111.4
2016-Apr-30 23:33N 51°58' E 003°35'5814.5
2016-Apr-30 19:33N 51°51' E 002°02'1515.4
2016-Apr-30 18:34N 51°38' E 001°48'1716.8
2016-Apr-30 17:33N 51°27' E 001°27'1312.9
2016-Apr-30 16:33N 51°29' E 001°07'1414.4
2016-Apr-30 15:33N 51°30' E 000°43'1111.3
2016-Apr-30 14:33N 51°27' E 000°26'4 3.6
2016-Apr-30 13:33N 51°27' E 000°20'0 0.0
2016-Apr-30 12:33N 51°27' E 000°20'0 0.0
2016-Apr-30 11:33N 51°27' E 000°20'0 0.0
2016-Apr-30 10:33N 51°27' E 000°20'0 0.0
2016-Apr-30 09:34N 51°27' E 000°20'0 0.0
2016-Apr-30 08:34N 51°27' E 000°20'0 0.0
2016-Apr-30 07:33N 51°27' E 000°20'0 0.0
2016-Apr-30 06:33N 51°27' E 000°20'0 0.0
2016-Apr-30 05:33N 51°27' E 000°20'0 0.0
2016-Apr-30 04:34N 51°27' E 000°20'1 1.0
2016-Apr-30 03:33N 51°27' E 000°21'9 9.4
2016-Apr-30 02:34N 51°30' E 000°36'1515.3
2016-Apr-30 01:33N 51°30' E 001°00'1313.5
2016-Apr-30 00:33N 51°29' E 001°22'7 6.8
2016-Apr-29 23:34N 51°24' E 001°30'1 0.6
2016-Apr-29 22:33N 51°24' E 001°31'1 0.5
2016-Apr-29 21:33N 51°24' E 001°32'3 3.2
2016-Apr-29 20:33N 51°22' E 001°35'7 7.3
2016-Apr-29 19:33N 51°14' E 001°38'1211.9
2016-Apr-29 18:34N 51°03' E 001°36'1514.8
2016-Apr-29 17:34N 50°50' E 001°24'4113.4
2016-Apr-29 14:29N 50°25' E 000°32'1314.5
2016-Apr-29 13:33N 50°21' E 000°12'1514.9
2016-Apr-29 12:33N 50°16' W 000°11'1915.1
2016-Apr-29 11:17N 50°11' W 000°39'8114.0
2016-Apr-29 05:31N 49°50' W 002°41'1313.3
2016-Apr-29 04:33N 49°46' W 002°60'1413.4
2016-Apr-29 03:30N 49°39' W 003°18'8613.5
2016-Apr-28 21:10N 48°56' W 005°12'1414.9
2016-Apr-28 20:12N 48°47' W 005°29'60415.2
2016-Apr-27 04:26N 39°13' W 009°49'1517.0
2016-Apr-27 03:34N 38°58' W 009°51'1616.4
2016-Apr-27 02:33N 38°42' W 009°50'1716.8
2016-Apr-27 01:33N 38°26' W 009°45'1716.9
2016-Apr-27 00:33N 38°09' W 009°40'1716.6
2016-Apr-26 23:33N 37°53' W 009°35'1616.4
2016-Apr-26 22:34N 37°37' W 009°31'1716.7
2016-Apr-26 21:34N 37°20' W 009°28'1716.8
2016-Apr-26 20:33N 37°04' W 009°23'1616.0
2016-Apr-26 19:33N 36°49' W 009°15'1616.3
2016-Apr-26 18:33N 36°41' W 008°58'1716.6
2016-Apr-26 17:33N 36°36' W 008°38'1716.3
2016-Apr-26 16:30N 36°31' W 008°17'1716.5
2016-Apr-26 15:30N 36°26' W 007°58'11716.9
2016-Apr-26 08:33N 35°58' W 005°36'1312.7
2016-Apr-26 07:33N 36°06' W 005°24'2 1.7
2016-Apr-26 06:29N 36°08' W 005°25'0 0.0
2016-Apr-26 05:23N 36°08' W 005°25'0 0.0
2016-Apr-26 04:29N 36°08' W 005°25'0 0.0
2016-Apr-26 03:32N 36°08' W 005°25'0 0.0
2016-Apr-26 02:29N 36°08' W 005°25'0 0.0
2016-Apr-26 01:29N 36°08' W 005°25'0 0.0
2016-Apr-26 00:32N 36°08' W 005°25'0 0.0
2016-Apr-25 23:32N 36°08' W 005°25'4 3.9
2016-Apr-25 22:33N 36°05' W 005°23'6 5.7
2016-Apr-25 21:33N 35°59' W 005°24'  
Track history (hours):
 
Tides and Currents Weather Stations Pressure Air Temp Water Temp Dewpoint Dewpoint Depression Visibility Wind Speed Wind Dir Waves Ship Positions

Marfret Guyane

Last reported at 2016-May-04 20:34 UTC. Time now 2016-May-04 21:07 UTC.
Position N 50°05' W 002°17'.

Length 170 m; draft 7.9 m.

Type: Ship (hazmat cat A). MMSI: 226324000.

Date/timePositionNaut miles runAvg speedWind from/ knotsBaromVisibWave heightAir tempDewpointWater temp
2016-May-04 20:34N 50°05' W 002°17'1717.1
2016-May-04 19:34N 50°03' W 001°50'1616.3
2016-May-04 18:33N 49°56' W 001°28'1615.9
2016-May-04 17:33N 49°49' W 001°06'1716.5
2016-May-04 16:34N 49°42' W 000°42'1818.2
2016-May-04 15:33N 49°35' W 000°16'1010.2
2016-May-04 14:33N 49°32' W 000°01'7 7.4
2016-May-04 13:33N 49°28' E 000°08'1 1.1
2016-May-04 12:32N 49°29' E 000°10'0 0.0
2016-May-04 11:32N 49°29' E 000°10'0 0.0
2016-May-04 10:32N 49°29' E 000°10'0 0.0
2016-May-04 09:32N 49°29' E 000°10'0 0.0
2016-May-04 08:32N 49°29' E 000°10'0 0.0
2016-May-04 07:32N 49°29' E 000°10'0 0.0
2016-May-04 06:32N 49°29' E 000°10'0 0.0
2016-May-04 05:32N 49°29' E 000°10'0 0.0
2016-May-04 04:32N 49°29' E 000°10'0 0.0
2016-May-04 03:32N 49°29' E 000°10'0 0.0
2016-May-04 02:32N 49°29' E 000°10'0 0.0
2016-May-04 01:32N 49°29' E 000°10'0 0.0
2016-May-04 00:32N 49°29' E 000°10'0 0.0
2016-May-03 23:32N 49°29' E 000°10'0 0.0
2016-May-03 22:32N 49°29' E 000°10'0 0.0
2016-May-03 21:32N 49°29' E 000°10'0 0.0
2016-May-03 20:32N 49°29' E 000°10'0 0.0
2016-May-03 19:32N 49°29' E 000°10'0 0.0
2016-May-03 18:32N 49°29' E 000°10'0 0.0
2016-May-03 17:32N 49°29' E 000°10'0 0.0
2016-May-03 16:32N 49°29' E 000°10'0 0.0
2016-May-03 15:32N 49°29' E 000°10'0 0.0
2016-May-03 14:32N 49°29' E 000°10'0 0.0
2016-May-03 13:32N 49°29' E 000°10'0 0.0
2016-May-03 12:32N 49°29' E 000°10'0 0.0
2016-May-03 11:32N 49°29' E 000°10'0 0.0
2016-May-03 10:32N 49°29' E 000°10'0 0.0
2016-May-03 09:32N 49°29' E 000°10'0 0.0
2016-May-03 08:32N 49°29' E 000°10'0 0.0
2016-May-03 07:32N 49°29' E 000°10'0 0.0
2016-May-03 06:32N 49°29' E 000°10'0 0.0
2016-May-03 05:32N 49°29' E 000°10'0 0.0
2016-May-03 04:32N 49°29' E 000°10'0 0.0
2016-May-03 03:32N 49°29' E 000°10'0 0.1
2016-May-03 02:33N 49°29' E 000°10'8 8.3
2016-May-03 01:34N 49°30' W 000°03'1 1.2
2016-May-03 00:33N 49°29' W 000°04'0 0.1
2016-May-02 23:33N 49°30' W 000°04'0 0.0
2016-May-02 22:33N 49°30' W 000°04'0 0.0
2016-May-02 21:33N 49°30' W 000°04'0 0.0
2016-May-02 20:33N 49°30' W 000°04'0 0.3
2016-May-02 19:33N 49°29' W 000°04'7 6.7
2016-May-02 18:33N 49°36' W 000°05'1212.2
2016-May-02 17:33N 49°47' E 000°03'1111.4
2016-May-02 16:34N 49°57' E 000°12'1111.3
2016-May-02 15:33N 50°06' E 000°22'3413.7
2016-May-02 13:07N 50°37' E 000°42'2516.0
2016-May-02 11:34N 50°53' E 001°13'1615.9
2016-May-02 10:33N 51°04' E 001°31'1414.3
2016-May-02 09:34N 51°14' E 001°47'1212.3
2016-May-02 08:33N 51°25' E 001°58'1312.9
2016-May-02 07:33N 51°35' E 002°11'1413.3
2016-May-02 06:32N 51°45' E 002°25'1414.2
2016-May-02 05:33N 51°55' E 002°40'1414.0
2016-May-02 04:33N 52°03' E 002°60'1515.0
2016-May-02 03:33N 52°03' E 003°24'1514.8
2016-May-02 02:33N 52°03' E 003°48'1312.5
2016-May-02 01:33N 51°59' E 004°07'1110.6
2016-May-02 00:33N 51°54' E 004°23'2 2.0
2016-May-01 23:32N 51°53' E 004°26'0 0.0
2016-May-01 22:32N 51°53' E 004°26'0 0.0
2016-May-01 21:32N 51°53' E 004°26'0 0.0
2016-May-01 20:32N 51°53' E 004°26'0 0.0
2016-May-01 19:32N 51°53' E 004°26'0 0.0
2016-May-01 18:32N 51°53' E 004°26'0 0.0
2016-May-01 17:32N 51°53' E 004°26'0 0.0
2016-May-01 16:32N 51°53' E 004°26'0 0.0
2016-May-01 15:32N 51°53' E 004°26'0 0.0
2016-May-01 13:32N 51°53' E 004°26'0 0.0
2016-May-01 12:32N 51°53' E 004°26'0 0.0
2016-May-01 11:32N 51°53' E 004°26'0 0.0
2016-May-01 10:32N 51°53' E 004°26'0 0.0
2016-May-01 09:32N 51°53' E 004°26'0 0.0
2016-May-01 08:32N 51°53' E 004°26'0 0.0
2016-May-01 07:32N 51°53' E 004°26'0 0.0
2016-May-01 06:29N 51°53' E 004°26'0 0.0
2016-May-01 05:32N 51°53' E 004°26'0 0.0
2016-May-01 04:29N 51°53' E 004°26'0 0.0
2016-May-01 03:32N 51°53' E 004°26'1 0.7
2016-May-01 02:33N 51°54' E 004°26'8 8.1
2016-May-01 01:34N 51°56' E 004°13'1312.6
2016-May-01 00:34N 52°00' E 003°53'1111.4
2016-Apr-30 23:33N 51°58' E 003°35'5814.5
2016-Apr-30 19:33N 51°51' E 002°02'1515.4
2016-Apr-30 18:34N 51°38' E 001°48'1716.8
2016-Apr-30 17:33N 51°27' E 001°27'1312.9
2016-Apr-30 16:33N 51°29' E 001°07'1414.4
2016-Apr-30 15:33N 51°30' E 000°43'1111.3
2016-Apr-30 14:33N 51°27' E 000°26'4 3.6
2016-Apr-30 13:33N 51°27' E 000°20'0 0.0
2016-Apr-30 12:33N 51°27' E 000°20'0 0.0
2016-Apr-30 11:33N 51°27' E 000°20'0 0.0
2016-Apr-30 10:33N 51°27' E 000°20'0 0.0
2016-Apr-30 09:34N 51°27' E 000°20'0 0.0
2016-Apr-30 08:34N 51°27' E 000°20'0 0.0
2016-Apr-30 07:33N 51°27' E 000°20'0 0.0
2016-Apr-30 06:33N 51°27' E 000°20'0 0.0
2016-Apr-30 05:33N 51°27' E 000°20'0 0.0
2016-Apr-30 04:34N 51°27' E 000°20'1 1.0
2016-Apr-30 03:33N 51°27' E 000°21'9 9.4
2016-Apr-30 02:34N 51°30' E 000°36'1515.3
2016-Apr-30 01:33N 51°30' E 001°00'1313.5
2016-Apr-30 00:33N 51°29' E 001°22'7 6.8
2016-Apr-29 23:34N 51°24' E 001°30'1 0.6
2016-Apr-29 22:33N 51°24' E 001°31'1 0.5
2016-Apr-29 21:33N 51°24' E 001°32'3 3.2
2016-Apr-29 20:33N 51°22' E 001°35'7 7.3
2016-Apr-29 19:33N 51°14' E 001°38'1211.9
2016-Apr-29 18:34N 51°03' E 001°36'1514.8
2016-Apr-29 17:34N 50°50' E 001°24'4113.4
2016-Apr-29 14:29N 50°25' E 000°32'1314.5
2016-Apr-29 13:33N 50°21' E 000°12'1514.9
2016-Apr-29 12:33N 50°16' W 000°11'1915.1
2016-Apr-29 11:17N 50°11' W 000°39'8114.0
2016-Apr-29 05:31N 49°50' W 002°41'1313.3
2016-Apr-29 04:33N 49°46' W 002°60'1413.4
2016-Apr-29 03:30N 49°39' W 003°18'8613.5
2016-Apr-28 21:10N 48°56' W 005°12'1414.9
2016-Apr-28 20:12N 48°47' W 005°29'60415.2
2016-Apr-27 04:26N 39°13' W 009°49'1517.0
2016-Apr-27 03:34N 38°58' W 009°51'1616.4
2016-Apr-27 02:33N 38°42' W 009°50'1716.8
2016-Apr-27 01:33N 38°26' W 009°45'1716.9
2016-Apr-27 00:33N 38°09' W 009°40'1716.6
2016-Apr-26 23:33N 37°53' W 009°35'1616.4
2016-Apr-26 22:34N 37°37' W 009°31'1716.7
2016-Apr-26 21:34N 37°20' W 009°28'1716.8
2016-Apr-26 20:33N 37°04' W 009°23'1616.0
2016-Apr-26 19:33N 36°49' W 009°15'1616.3
2016-Apr-26 18:33N 36°41' W 008°58'1716.6
2016-Apr-26 17:33N 36°36' W 008°38'1716.3
2016-Apr-26 16:30N 36°31' W 008°17'1716.5
2016-Apr-26 15:30N 36°26' W 007°58'11716.9
2016-Apr-26 08:33N 35°58' W 005°36'1312.7
2016-Apr-26 07:33N 36°06' W 005°24'2 1.7
2016-Apr-26 06:29N 36°08' W 005°25'0 0.0
2016-Apr-26 05:23N 36°08' W 005°25'0 0.0
2016-Apr-26 04:29N 36°08' W 005°25'0 0.0
2016-Apr-26 03:32N 36°08' W 005°25'0 0.0
2016-Apr-26 02:29N 36°08' W 005°25'0 0.0
2016-Apr-26 01:29N 36°08' W 005°25'0 0.0
2016-Apr-26 00:32N 36°08' W 005°25'0 0.0
2016-Apr-25 23:32N 36°08' W 005°25'4 3.9
2016-Apr-25 22:33N 36°05' W 005°23'6 5.7
2016-Apr-25 21:33N 35°59' W 005°24'  

Dump ship's entire track history